Time;durP1;ratioP1;P1;durP2;ratioP2;P2;SDS_P1;SDS_P2;PMS_P1;PMS_P2;Temp;Humidity;BMP_temperature;BMP_pressure;BME280_temperature;BME280_humidity;BME280_pressure;Samples;Min_cycle;Max_cycle;Signal;HPM_P1;HPM_P2
2023/07/13 00:00:50;;;;;;;;;;;;;;;21.92;72.41;97964.97;2630975;28;19924;-84
2023/07/13 00:02:26;;;;;;;;;;;;;;;21.95;69.87;97963.88;2630967;28;19931;-85
2023/07/13 00:03:42;;;;;;;;;;;;;;;21.71;71.59;97963.09;2630968;28;19956;-85
2023/07/13 00:04:57;;;;;;;;;;;;;;;21.67;72.51;97966.16;2630934;28;19924;-84
2023/07/13 00:06:13;;;;;;;;;;;;;;;21.70;72.15;97968.56;2631097;28;19923;-84
2023/07/13 00:07:28;;;;;;;;;;;;;;;21.81;72.00;97957.00;2630747;28;20148;-85
2023/07/13 00:08:44;;;;;;;;;;;;;;;21.88;71.88;97966.22;2630651;28;20018;-84
2023/07/13 00:09:59;;;;;;;;;;;;;;;21.77;73.27;97958.25;2630723;28;20359;-85
2023/07/13 00:11:15;;;;;;;;;;;;;;;21.84;72.40;97965.63;2631161;28;19931;-84
2023/07/13 00:12:32;;;;;;;;;;;;;;;21.77;71.66;97958.25;2630819;28;19962;-84
2023/07/13 00:13:47;;;;;;;;;;;;;;;21.68;71.27;97946.53;2630812;28;20371;-84
2023/07/13 00:15:13;;;;;;;;;;;;;;;21.52;71.53;97952.22;2631083;28;19920;-84
2023/07/13 00:16:29;;;;;;;;;;;;;;;21.59;71.98;97956.94;2630833;28;19923;-84
2023/07/13 00:17:44;;;;;;;;;;;;;;;21.70;72.74;97949.91;2630766;28;20317;-84
2023/07/13 00:19:00;;;;;;;;;;;;;;;21.77;72.30;97943.09;2630914;28;20295;-84
2023/07/13 00:20:16;;;;;;;;;;;;;;;21.62;73.26;97947.00;2631076;28;19970;-84
2023/07/13 00:21:31;;;;;;;;;;;;;;;21.75;73.90;97945.03;2630807;28;19920;-84
2023/07/13 00:22:47;;;;;;;;;;;;;;;21.65;76.51;97944.94;2630538;28;19924;-84
2023/07/13 00:24:03;;;;;;;;;;;;;;;21.52;76.80;97953.09;2630911;28;19924;-84
2023/07/13 00:25:19;;;;;;;;;;;;;;;21.66;77.35;97946.66;2630952;28;19934;-84
2023/07/13 00:26:34;;;;;;;;;;;;;;;21.54;77.27;97948.47;2630393;28;20023;-84
2023/07/13 00:27:50;;;;;;;;;;;;;;;21.49;77.83;97945.31;2630582;28;19923;-84
2023/07/13 00:29:08;;;;;;;;;;;;;;;21.62;78.89;97944.31;2630889;28;20013;-84
2023/07/13 00:30:24;;;;;;;;;;;;;;;21.59;78.86;97948.94;2630884;28;19946;-84
2023/07/13 00:31:40;;;;;;;;;;;;;;;21.46;78.85;97945.56;2630551;28;19920;-84
2023/07/13 00:32:55;;;;;;;;;;;;;;;21.31;83.50;97943.19;2630674;28;19967;-84
2023/07/13 00:34:11;;;;;;;;;;;;;;;21.31;83.97;97937.84;2630854;28;19920;-84
2023/07/13 00:35:26;;;;;;;;;;;;;;;21.45;80.28;97938.56;2630671;28;20395;-84
2023/07/13 00:36:41;;;;;;;;;;;;;;;21.54;80.34;97936.97;2630615;28;19935;-83
2023/07/13 00:37:57;;;;;;;;;;;;;;;21.55;80.13;97935.97;2630612;28;20515;-84
2023/07/13 00:39:12;;;;;;;;;;;;;;;21.56;79.94;97927.88;2630735;28;19961;-84
2023/07/13 00:40:27;;;;;;;;;;;;;;;21.55;77.78;97930.66;2630637;28;19923;-83
2023/07/13 00:41:44;;;;;;;;;;;;;;;21.56;79.44;97929.69;2630655;28;19955;-83
2023/07/13 00:42:59;;;;;;;;;;;;;;;21.50;80.34;97928.38;2630164;28;20037;-84
2023/07/13 00:44:16;;;;;;;;;;;;;;;21.31;79.52;97935.19;2630613;28;19924;-84
2023/07/13 00:45:31;;;;;;;;;;;;;;;21.26;82.89;97926.75;2630681;28;19920;-84
2023/07/13 00:46:46;;;;;;;;;;;;;;;21.28;83.53;97927.47;2630509;28;20559;-84
2023/07/13 00:48:02;;;;;;;;;;;;;;;21.37;80.67;97914.34;2630437;28;20243;-84
2023/07/13 00:49:20;;;;;;;;;;;;;;;21.38;84.23;97918.75;2630697;28;20793;-84
2023/07/13 00:50:35;;;;;;;;;;;;;;;21.31;83.88;97913.91;2630375;28;19924;-84
2023/07/13 00:51:55;;;;;;;;;;;;;;;21.11;85.85;97907.50;2630477;28;19934;-84
2023/07/13 00:53:11;;;;;;;;;;;;;;;20.94;88.75;97911.50;2630240;28;20022;-84
2023/07/13 00:54:31;;;;;;;;;;;;;;;21.01;88.59;97906.56;2630302;28;20058;-84
2023/07/13 00:55:48;;;;;;;;;;;;;;;21.30;87.41;97919.34;2630330;28;19924;-83
2023/07/13 00:57:05;;;;;;;;;;;;;;;21.39;87.97;97918.59;2630519;28;20570;-83
2023/07/13 00:58:21;;;;;;;;;;;;;;;21.38;88.42;97921.41;2629906;28;20002;-83
2023/07/13 00:59:39;;;;;;;;;;;;;;;21.47;86.22;97915.31;2630472;28;19927;-84
2023/07/13 01:00:55;;;;;;;;;;;;;;;21.44;85.54;97913.75;2630357;28;20314;-84
2023/07/13 01:02:11;;;;;;;;;;;;;;;21.53;86.12;97925.47;2630312;28;20064;-84
2023/07/13 01:03:27;;;;;;;;;;;;;;;21.55;85.99;97920.88;2630394;28;19969;-84
2023/07/13 01:04:44;;;;;;;;;;;;;;;21.47;85.64;97917.97;2630535;28;20334;-84
2023/07/13 01:06:00;;;;;;;;;;;;;;;21.55;83.54;97925.34;2630229;28;19927;-84
2023/07/13 01:07:15;;;;;;;;;;;;;;;21.58;84.49;97930.41;2630405;28;19935;-85
2023/07/13 01:08:31;;;;;;;;;;;;;;;21.47;84.13;97925.97;2630233;28;19938;-83
2023/07/13 01:09:46;;;;;;;;;;;;;;;21.41;87.10;97924.63;2630079;28;19928;-84
2023/07/13 01:11:02;;;;;;;;;;;;;;;21.44;86.59;97920.88;2630261;28;19924;-84
2023/07/13 01:12:17;;;;;;;;;;;;;;;21.56;84.92;97914.56;2630342;28;19923;-84
2023/07/13 01:13:33;;;;;;;;;;;;;;;21.52;81.97;97912.28;2630445;28;19939;-84
2023/07/13 01:14:48;;;;;;;;;;;;;;;21.46;81.81;97916.28;2630197;28;19923;-84
2023/07/13 01:16:11;;;;;;;;;;;;;;;21.46;84.29;97913.63;2630154;28;19935;-84
2023/07/13 01:17:27;;;;;;;;;;;;;;;21.50;83.03;97909.72;2630305;28;19928;-84
2023/07/13 01:18:43;;;;;;;;;;;;;;;21.55;81.41;97918.19;2630240;28;19939;-84
2023/07/13 01:19:58;;;;;;;;;;;;;;;21.44;83.27;97908.44;2629274;28;19938;-83
2023/07/13 01:21:14;;;;;;;;;;;;;;;21.31;83.55;97905.91;2629587;28;20379;-84
2023/07/13 01:22:32;;;;;;;;;;;;;;;21.47;82.69;97901.16;2630212;28;19946;-84
2023/07/13 01:23:48;;;;;;;;;;;;;;;21.29;84.25;97902.53;2630194;28;19966;-84
2023/07/13 01:25:03;;;;;;;;;;;;;;;21.37;84.60;97901.03;2630161;28;19924;-84
2023/07/13 01:26:18;;;;;;;;;;;;;;;21.50;85.03;97901.72;2630200;28;19938;-84
2023/07/13 01:27:34;;;;;;;;;;;;;;;21.46;86.21;97894.97;2630191;28;19938;-84
2023/07/13 01:28:49;;;;;;;;;;;;;;;21.37;87.01;97896.56;2630100;28;20429;-84
2023/07/13 01:30:05;;;;;;;;;;;;;;;21.25;86.30;97903.75;2630000;28;19920;-84
2023/07/13 01:31:20;;;;;;;;;;;;;;;21.29;85.92;97907.84;2630359;28;19920;-84
2023/07/13 01:32:36;;;;;;;;;;;;;;;21.25;89.09;97905.56;2630496;28;19938;-84
2023/07/13 01:33:52;;;;;;;;;;;;;;;21.37;86.61;97906.38;2629975;28;19962;-84
2023/07/13 01:35:07;;;;;;;;;;;;;;;21.44;84.51;97908.44;2629937;28;19923;-83
2023/07/13 01:36:23;;;;;;;;;;;;;;;21.42;85.54;97906.84;2630291;28;19931;-84
2023/07/13 01:37:38;;;;;;;;;;;;;;;21.42;84.92;97906.84;2630459;28;19923;-84
2023/07/13 01:38:53;;;;;;;;;;;;;;;21.23;87.41;97900.38;2629948;28;19966;-83
2023/07/13 01:40:09;;;;;;;;;;;;;;;21.07;91.92;97900.75;2629956;28;19966;-83
2023/07/13 01:41:24;;;;;;;;;;;;;;;21.17;98.52;97904.38;2629943;28;19938;-83
2023/07/13 01:42:40;;;;;;;;;;;;;;;21.39;100.00;97901.78;2630092;28;19924;-83
2023/07/13 01:43:55;;;;;;;;;;;;;;;21.57;97.66;97902.94;2629755;28;19924;-84
2023/07/13 01:45:10;;;;;;;;;;;;;;;21.56;94.38;97901.25;2630192;28;20375;-85
2023/07/13 01:46:26;;;;;;;;;;;;;;;21.36;91.92;97912.66;2630251;28;19967;-83
2023/07/13 01:47:41;;;;;;;;;;;;;;;21.21;95.17;97910.28;2630131;28;19935;-84
2023/07/13 01:48:57;;;;;;;;;;;;;;;21.40;99.29;97898.97;2629653;28;19927;-83
2023/07/13 01:50:12;;;;;;;;;;;;;;;21.40;100.00;97904.31;2629991;28;20430;-83
2023/07/13 01:51:27;;;;;;;;;;;;;;;21.27;100.00;97911.59;2629986;28;19923;-83
2023/07/13 01:52:43;;;;;;;;;;;;;;;21.20;100.00;97908.59;2629964;28;19920;-83
2023/07/13 01:53:58;;;;;;;;;;;;;;;21.26;100.00;97905.44;2629387;28;19920;-86
2023/07/13 01:55:14;;;;;;;;;;;;;;;21.23;100.00;97913.69;2629815;28;19920;-85
2023/07/13 01:56:29;;;;;;;;;;;;;;;21.13;100.00;97912.72;2630078;28;19944;-85
2023/07/13 01:57:44;;;;;;;;;;;;;;;21.16;100.00;97918.66;2629764;28;19942;-85
2023/07/13 01:59:00;;;;;;;;;;;;;;;20.96;100.00;97917.59;2629798;28;19934;-83
2023/07/13 02:00:15;;;;;;;;;;;;;;;20.94;100.00;97916.84;2630214;28;19962;-84
2023/07/13 02:01:31;;;;;;;;;;;;;;;20.92;100.00;97916.13;2630006;28;20019;-86
2023/07/13 02:02:46;;;;;;;;;;;;;;;21.04;100.00;97909.00;2629610;28;19932;-85
2023/07/13 02:04:02;;;;;;;;;;;;;;;21.09;100.00;97916.59;2629955;28;19931;-86
2023/07/13 02:05:17;;;;;;;;;;;;;;;20.99;100.00;97913.81;2630085;28;19943;-85
2023/07/13 02:06:33;;;;;;;;;;;;;;;21.00;100.00;97913.69;2630353;28;19924;-85
2023/07/13 02:07:49;;;;;;;;;;;;;;;21.12;100.00;97913.69;2629677;28;19931;-85
2023/07/13 02:09:04;;;;;;;;;;;;;;;21.12;100.00;97911.03;2629547;28;19924;-85
2023/07/13 02:10:20;;;;;;;;;;;;;;;21.17;100.00;97914.16;2629956;28;19928;-85
2023/07/13 02:11:35;;;;;;;;;;;;;;;21.18;100.00;97915.84;2630020;28;19924;-83
2023/07/13 02:12:50;;;;;;;;;;;;;;;21.20;100.00;97921.91;2629656;28;19924;-85
2023/07/13 02:14:06;;;;;;;;;;;;;;;21.21;100.00;97918.25;2630250;28;19931;-85
2023/07/13 02:15:21;;;;;;;;;;;;;;;21.19;100.00;97922.88;2630013;28;19923;-83
2023/07/13 02:16:36;;;;;;;;;;;;;;;21.12;100.00;97909.19;2629969;28;19946;-85
2023/07/13 02:17:52;;;;;;;;;;;;;;;21.15;100.00;97908.13;2629817;28;19924;-85
2023/07/13 02:19:07;;;;;;;;;;;;;;;21.17;100.00;97907.03;2630013;28;19926;-85
2023/07/13 02:20:23;;;;;;;;;;;;;;;21.25;100.00;97916.22;2629590;28;19935;-85
2023/07/13 02:21:38;;;;;;;;;;;;;;;21.24;100.00;97920.69;2629963;28;19942;-85
2023/07/13 02:22:54;;;;;;;;;;;;;;;21.17;100.00;97914.16;2629509;28;19920;-85
2023/07/13 02:24:09;;;;;;;;;;;;;;;21.25;100.00;97917.06;2630137;28;19920;-86
2023/07/13 02:25:26;;;;;;;;;;;;;;;21.25;100.00;97919.72;2629867;28;20289;-85
2023/07/13 02:26:41;;;;;;;;;;;;;;;21.03;100.00;97913.44;2629838;28;20101;-85
2023/07/13 02:27:57;;;;;;;;;;;;;;;21.23;100.00;97919.00;2629813;28;19924;-85
2023/07/13 02:29:12;;;;;;;;;;;;;;;21.17;100.00;97915.03;2629881;28;19942;-86
2023/07/13 02:30:29;;;;;;;;;;;;;;;21.13;100.00;97921.53;2629742;28;19939;-87
2023/07/13 02:31:45;;;;;;;;;;;;;;;21.03;100.00;97920.59;2629718;28;20367;-85
2023/07/13 02:33:00;;;;;;;;;;;;;;;21.00;100.00;97919.03;2629830;28;19938;-85
2023/07/13 02:34:15;;;;;;;;;;;;;;;20.96;100.00;97930.03;2629867;28;19942;-86
2023/07/13 02:35:31;;;;;;;;;;;;;;;21.07;100.00;97937.16;2629447;28;20926;-87
2023/07/13 02:36:46;;;;;;;;;;;;;;;21.17;100.00;97936.31;2629341;28;19928;-87
2023/07/13 02:38:02;;;;;;;;;;;;;;;21.28;100.00;97938.13;2629738;28;19930;-87
2023/07/13 02:39:17;;;;;;;;;;;;;;;21.35;100.00;97935.81;2629756;28;20501;-87
2023/07/13 02:40:35;;;;;;;;;;;;;;;21.31;100.00;97939.69;2629900;28;19924;-87
2023/07/13 02:41:51;;;;;;;;;;;;;;;21.31;100.00;97943.19;2629516;28;19924;-87
2023/07/13 02:43:06;;;;;;;;;;;;;;;21.32;100.00;97944.03;2630018;28;19950;-86
2023/07/13 02:44:21;;;;;;;;;;;;;;;21.38;100.00;97951.53;2629821;28;19939;-87
2023/07/13 02:45:37;;;;;;;;;;;;;;;21.43;100.00;97940.50;2629558;28;20601;-88
2023/07/13 02:46:52;;;;;;;;;;;;;;;21.47;100.00;97941.94;2629611;28;19939;-87
2023/07/13 02:48:08;;;;;;;;;;;;;;;21.57;100.00;97944.69;2629804;28;19967;-88
2023/07/13 02:49:23;;;;;;;;;;;;;;;21.61;100.00;97942.63;2629822;28;19924;-87
2023/07/13 02:50:39;;;;;;;;;;;;;;;21.70;100.00;97947.25;2629612;28;20373;-87
2023/07/13 02:51:54;;;;;;;;;;;;;;;21.91;100.00;97946.44;2629630;28;19941;-87
2023/07/13 02:53:09;;;;;;;;;;;;;;;21.95;100.00;97942.56;2626964;28;20423;-87
2023/07/13 02:54:24;;;;;;;;;;;;;;;21.97;100.00;97948.59;2627338;28;19958;-86
2023/07/13 02:55:40;;;;;;;;;;;;;;;21.99;100.00;97947.50;2629552;28;19920;-86
2023/07/13 02:56:56;;;;;;;;;;;;;;;21.95;100.00;97951.38;2629841;28;19943;-86
2023/07/13 02:58:11;;;;;;;;;;;;;;;22.00;100.00;97953.69;2629865;28;19920;-87
2023/07/13 02:59:26;;;;;;;;;;;;;;;22.02;100.00;97954.38;2629687;28;19947;-86
2023/07/13 03:00:43;;;;;;;;;;;;;;;22.03;100.00;97960.59;2629591;28;19920;-86
2023/07/13 03:01:58;;;;;;;;;;;;;;;21.75;100.00;97954.88;2629551;28;19963;-86
2023/07/13 03:03:14;;;;;;;;;;;;;;;21.75;100.00;97963.69;2629887;28;20025;-86
2023/07/13 03:04:29;;;;;;;;;;;;;;;21.99;100.00;97962.66;2629334;28;20014;-87
2023/07/13 03:05:49;;;;;;;;;;;;;;;21.94;100.00;97946.19;2630664;28;19924;-87
2023/07/13 03:07:05;;;;;;;;;;;;;;;22.03;100.00;97953.41;2631762;28;19920;-86
2023/07/13 03:08:20;;;;;;;;;;;;;;;22.01;100.00;97939.38;2631455;28;20310;-86
2023/07/13 03:09:36;;;;;;;;;;;;;;;22.00;100.00;97943.00;2631392;28;20301;-87
2023/07/13 03:11:01;;;;;;;;;;;;;;;21.84;100.00;97938.97;2631269;28;19924;-87
2023/07/13 03:12:17;;;;;;;;;;;;;;;21.81;100.00;97946.34;2631573;28;19928;-87
2023/07/13 03:13:32;;;;;;;;;;;;;;;21.77;100.00;97937.75;2631515;28;19924;-87
2023/07/13 03:14:47;;;;;;;;;;;;;;;21.76;100.00;97945.91;2631500;28;19924;-87
2023/07/13 03:16:03;;;;;;;;;;;;;;;21.65;100.00;97939.59;2631336;28;20390;-87
2023/07/13 03:17:19;;;;;;;;;;;;;;;21.81;100.00;97943.69;2631232;28;20420;-87
2023/07/13 03:18:35;;;;;;;;;;;;;;;21.86;100.00;97944.16;2631431;28;19931;-87
2023/07/13 03:19:51;;;;;;;;;;;;;;;21.95;100.00;97942.56;2631341;28;20352;-87
2023/07/13 03:21:06;;;;;;;;;;;;;;;21.84;100.00;97941.63;2631312;28;19920;-87
2023/07/13 03:22:22;;;;;;;;;;;;;;;21.82;100.00;97950.72;2631247;28;20341;-87
2023/07/13 03:23:37;;;;;;;;;;;;;;;21.80;100.00;97950.00;2631253;28;19928;-87
2023/07/13 03:24:54;;;;;;;;;;;;;;;21.76;100.00;97951.22;2631135;28;19924;-88
2023/07/13 03:26:12;;;;;;;;;;;;;;;21.76;100.00;97953.91;2631371;28;20014;-87
2023/07/13 03:27:27;;;;;;;;;;;;;;;21.71;100.00;97954.28;2631314;28;19924;-88
2023/07/13 03:28:43;;;;;;;;;;;;;;;21.78;100.00;97957.28;2631287;28;19924;-87
2023/07/13 03:29:58;;;;;;;;;;;;;;;21.69;100.00;97966.88;2631166;28;20394;-87
2023/07/13 03:31:18;;;;;;;;;;;;;;;21.75;100.00;97961.03;2631481;28;20369;-87
2023/07/13 03:32:34;;;;;;;;;;;;;;;21.63;100.00;97975.31;2631079;28;19963;-87
2023/07/13 03:33:49;;;;;;;;;;;;;;;21.50;100.00;97973.66;2631022;28;19942;-87
2023/07/13 03:35:05;;;;;;;;;;;;;;;21.69;100.00;97978.34;2630921;28;19946;-88
2023/07/13 03:36:22;;;;;;;;;;;;;;;21.59;100.00;97988.88;2631157;28;20371;-88
2023/07/13 03:37:42;;;;;;;;;;;;;;;21.57;100.00;97984.66;2631243;28;19924;-87
2023/07/13 03:38:59;;;;;;;;;;;;;;;21.53;100.00;97985.88;2631211;28;20009;-87
2023/07/13 03:40:14;;;;;;;;;;;;;;;21.63;100.00;97986.84;2631027;28;20035;-88
2023/07/13 03:41:31;;;;;;;;;;;;;;;21.65;100.00;97982.22;2631226;28;20307;-87
2023/07/13 03:42:47;;;;;;;;;;;;;;;21.57;100.00;97985.50;2630856;28;19927;-88
2023/07/13 03:44:02;;;;;;;;;;;;;;;21.47;100.00;97991.72;2630815;28;20038;-87
2023/07/13 03:45:18;;;;;;;;;;;;;;;21.50;100.00;97994.94;2630933;28;19931;-88
2023/07/13 03:46:34;;;;;;;;;;;;;;;21.58;100.00;98005.84;2631228;28;19951;-87
2023/07/13 03:47:49;;;;;;;;;;;;;;;21.53;100.00;97999.19;2630905;28;19935;-88
2023/07/13 03:49:05;;;;;;;;;;;;;;;21.61;100.00;98015.41;2630953;28;20003;-88
2023/07/13 03:50:21;;;;;;;;;;;;;;;21.62;100.00;98008.25;2631051;28;20144;-89
2023/07/13 03:51:36;;;;;;;;;;;;;;;21.72;100.00;98006.56;2631330;28;19935;-88
2023/07/13 03:52:51;;;;;;;;;;;;;;;21.68;100.00;98010.47;2631021;28;19930;-87
2023/07/13 03:54:07;;;;;;;;;;;;;;;21.70;100.00;98012.03;2631081;28;19935;-87
2023/07/13 03:55:22;;;;;;;;;;;;;;;21.62;100.00;98013.59;2631056;28;20299;-88
2023/07/13 03:56:38;;;;;;;;;;;;;;;21.55;100.00;98013.22;2630700;28;19924;-88
2023/07/13 03:57:58;;;;;;;;;;;;;;;21.52;100.00;98019.66;2630661;28;19923;-87
2023/07/13 03:59:13;;;;;;;;;;;;;;;21.53;100.00;98021.38;2630849;28;19928;-88
2023/07/13 04:00:29;;;;;;;;;;;;;;;21.55;100.00;98016.75;2630944;28;19999;-88
2023/07/13 04:01:44;;;;;;;;;;;;;;;21.60;100.00;98024.38;2628858;28;19947;-87
2023/07/13 04:03:00;;;;;;;;;;;;;;;21.56;100.00;98015.78;2628861;28;20394;-88
2023/07/13 04:04:15;;;;;;;;;;;;;;;21.51;100.00;98019.78;2630712;28;20408;-88
2023/07/13 04:05:31;;;;;;;;;;;;;;;21.39;100.00;98019.78;2630967;28;20438;-87
2023/07/13 04:06:46;;;;;;;;;;;;;;;21.51;100.00;98023.31;2630924;28;19928;-88
2023/07/13 04:08:02;;;;;;;;;;;;;;;21.28;100.00;98027.78;2630611;28;19963;-87
2023/07/13 04:09:18;;;;;;;;;;;;;;;21.46;100.00;98025.47;2630707;28;19932;-88
2023/07/13 04:10:34;;;;;;;;;;;;;;;21.13;100.00;98030.69;2630914;28;19924;-88
2023/07/13 04:11:49;;;;;;;;;;;;;;;21.16;100.00;98024.28;2624374;28;19962;-87
2023/07/13 04:13:05;;;;;;;;;;;;;;;21.01;100.00;98023.66;2626977;28;19920;-88
2023/07/13 04:14:20;;;;;;;;;;;;;;;21.00;100.00;98029.94;2630938;28;19920;-88
2023/07/13 04:15:36;;;;;;;;;;;;;;;21.33;100.00;98030.94;2619747;28;20011;-88
2023/07/13 04:16:51;;;;;;;;;;;;;;;21.27;100.00;98032.28;2616957;28;19924;-88
2023/07/13 04:18:07;;;;;;;;;;;;;;;21.33;100.00;98030.06;2630002;28;19928;-88
2023/07/13 04:19:22;;;;;;;;;;;;;;;21.29;100.00;98026.81;2630000;28;19934;-88
2023/07/13 04:20:38;;;;;;;;;;;;;;;21.30;100.00;98032.03;2629979;28;19928;-89
2023/07/13 04:21:53;;;;;;;;;;;;;;;21.25;100.00;98034.22;2630822;28;19934;-88
2023/07/13 04:23:08;;;;;;;;;;;;;;;21.16;100.00;98029.59;2630487;28;19920;-88
2023/07/13 04:24:24;;;;;;;;;;;;;;;21.05;100.00;98026.91;2630524;28;19920;-88
2023/07/13 04:25:43;;;;;;;;;;;;;;;21.00;100.00;98033.47;2630240;28;19928;-88
2023/07/13 04:27:00;;;;;;;;;;;;;;;20.90;100.00;98037.78;2630377;28;19931;-87
2023/07/13 04:28:17;;;;;;;;;;;;;;;20.95;100.00;98029.47;2630676;28;20006;-87
2023/07/13 04:29:32;;;;;;;;;;;;;;;20.94;100.00;98039.25;2630483;28;20446;-87
2023/07/13 04:30:48;;;;;;;;;;;;;;;20.90;100.00;98026.31;2630733;28;19930;-88
2023/07/13 04:32:04;;;;;;;;;;;;;;;20.95;100.00;98032.13;2630671;28;19923;-87
2023/07/13 04:33:22;;;;;;;;;;;;;;;20.83;100.00;98026.78;2630155;28;20406;-87
2023/07/13 04:34:37;;;;;;;;;;;;;;;20.96;100.00;98029.34;2630573;28;19928;-87
2023/07/13 04:35:56;;;;;;;;;;;;;;;21.02;100.00;98020.88;2630293;28;19927;-86
2023/07/13 04:37:11;;;;;;;;;;;;;;;21.11;100.00;98029.94;2630333;28;19927;-86
2023/07/13 04:38:28;;;;;;;;;;;;;;;21.23;100.00;98032.63;2625656;28;19927;-87
2023/07/13 04:39:43;;;;;;;;;;;;;;;21.37;99.46;98034.19;2630055;28;19969;-86
2023/07/13 04:41:00;;;;;;;;;;;;;;;21.27;100.00;98026.94;2629811;28;19924;-86
2023/07/13 04:42:16;;;;;;;;;;;;;;;21.15;100.00;98034.06;2629810;28;19927;-86
2023/07/13 04:43:32;;;;;;;;;;;;;;;21.19;100.00;98040.00;2630742;28;19920;-88
2023/07/13 04:44:48;;;;;;;;;;;;;;;21.23;100.00;98041.47;2630387;28;19927;-86
2023/07/13 04:46:05;;;;;;;;;;;;;;;21.10;100.00;98051.38;2629470;28;20374;-84
2023/07/13 04:47:20;;;;;;;;;;;;;;;21.31;98.39;98048.84;2629794;28;19931;-85
2023/07/13 04:48:36;;;;;;;;;;;;;;;21.38;99.16;98043.91;2630463;28;19920;-85
2023/07/13 04:49:51;;;;;;;;;;;;;;;21.13;100.00;98043.16;2630425;28;19994;-85
2023/07/13 04:51:07;;;;;;;;;;;;;;;21.01;100.00;98045.78;2630281;28;19973;-84
2023/07/13 04:52:22;;;;;;;;;;;;;;;20.91;100.00;98052.78;2630568;28;19931;-85
2023/07/13 04:53:38;;;;;;;;;;;;;;;21.02;100.00;98057.28;2630435;28;19985;-84
2023/07/13 04:54:53;;;;;;;;;;;;;;;21.12;99.29;98060.09;2630341;28;19993;-85
2023/07/13 04:56:08;;;;;;;;;;;;;;;21.11;99.75;98061.06;2629922;28;19930;-84
2023/07/13 04:57:24;;;;;;;;;;;;;;;21.18;100.00;98070.25;2630449;28;19920;-84
2023/07/13 04:58:40;;;;;;;;;;;;;;;21.21;98.31;98069.16;2629983;28;20263;-85
2023/07/13 04:59:55;;;;;;;;;;;;;;;21.31;97.44;98075.47;2630022;28;20382;-85
2023/07/13 05:01:11;;;;;;;;;;;;;;;21.38;95.40;98075.84;2630278;28;19924;-85
2023/07/13 05:02:28;;;;;;;;;;;;;;;21.45;93.00;98077.03;2630574;28;19920;-85
2023/07/13 05:03:43;;;;;;;;;;;;;;;21.29;93.69;98080.91;2630343;28;20571;-85
2023/07/13 05:04:59;;;;;;;;;;;;;;;21.37;88.39;98087.44;2630083;28;19931;-84
2023/07/13 05:06:14;;;;;;;;;;;;;;;21.29;83.69;98088.03;2630026;28;19924;-85
2023/07/13 05:07:30;;;;;;;;;;;;;;;21.26;82.37;98077.63;2630486;28;19935;-84
2023/07/13 05:08:45;;;;;;;;;;;;;;;21.11;84.93;98077.03;2630231;28;19936;-85
2023/07/13 05:10:00;;;;;;;;;;;;;;;21.23;78.49;98070.75;2630213;28;19931;-84
2023/07/13 05:11:18;;;;;;;;;;;;;;;21.28;78.56;98076.56;2630215;28;19924;-84
2023/07/13 05:12:33;;;;;;;;;;;;;;;21.26;77.84;98073.16;2630071;28;19920;-86
2023/07/13 05:13:48;;;;;;;;;;;;;;;21.24;76.38;98079.56;2624131;28;19924;-85
2023/07/13 05:15:04;;;;;;;;;;;;;;;21.17;74.85;98082.72;2625673;28;19977;-84
2023/07/13 05:16:20;;;;;;;;;;;;;;;21.11;76.73;98077.03;2630008;28;19937;-84
2023/07/13 05:17:35;;;;;;;;;;;;;;;21.05;76.90;98074.81;2630177;28;19924;-84
2023/07/13 05:18:50;;;;;;;;;;;;;;;21.15;74.03;98081.16;2629942;28;20355;-85
2023/07/13 05:20:07;;;;;;;;;;;;;;;21.21;75.61;98079.81;2628794;28;19924;-85
2023/07/13 05:21:23;;;;;;;;;;;;;;;21.14;76.34;98084.78;2629780;28;19927;-85
2023/07/13 05:22:38;;;;;;;;;;;;;;;21.29;74.03;98085.38;2630105;28;19923;-85
2023/07/13 05:23:54;;;;;;;;;;;;;;;21.17;73.05;98088.06;2629805;28;20008;-85
2023/07/13 05:25:10;;;;;;;;;;;;;;;21.24;72.21;98085.75;2629807;28;19928;-84
2023/07/13 05:26:25;;;;;;;;;;;;;;;21.39;72.61;98093.50;2629463;28;19951;-83
2023/07/13 05:27:40;;;;;;;;;;;;;;;21.42;71.20;98093.28;2629613;28;20291;-84
2023/07/13 05:28:56;;;;;;;;;;;;;;;21.39;68.66;98096.19;2629218;28;19935;-84
2023/07/13 05:30:11;;;;;;;;;;;;;;;21.39;67.72;98096.19;2629606;28;20280;-84
2023/07/13 05:31:27;;;;;;;;;;;;;;;21.39;67.37;98093.50;2629822;28;19935;-84
2023/07/13 05:32:43;;;;;;;;;;;;;;;21.45;68.03;98090.34;2629885;28;20363;-83
2023/07/13 05:33:58;;;;;;;;;;;;;;;21.55;66.69;98096.66;2629852;28;19920;-91
2023/07/13 05:35:14;;;;;;;;;;;;;;;21.60;66.92;98096.31;2630493;28;20364;-92
2023/07/13 05:36:29;;;;;;;;;;;;;;;21.63;66.07;98090.72;2629725;28;20375;-91
2023/07/13 05:37:45;;;;;;;;;;;;;;;21.67;67.16;98094.88;2630323;28;19920;-91
2023/07/13 05:39:00;;;;;;;;;;;;;;;21.51;67.95;98108.53;2630481;28;19924;-91
2023/07/13 05:40:15;;;;;;;;;;;;;;;21.53;68.55;98101.28;2630293;28;19935;-90
2023/07/13 05:41:31;;;;;;;;;;;;;;;21.64;65.69;98110.19;2630773;28;19946;-88
2023/07/13 05:42:46;;;;;;;;;;;;;;;21.77;65.88;98110.97;2630706;28;19924;-91
2023/07/13 05:44:02;;;;;;;;;;;;;;;21.86;65.29;98102.25;2630431;28;19923;-90
2023/07/13 05:45:17;;;;;;;;;;;;;;;21.69;66.91;98105.41;2630496;28;19971;-92
2023/07/13 05:46:32;;;;;;;;;;;;;;;21.69;66.05;98106.25;2627634;28;19924;-92
2023/07/13 05:47:48;;;;;;;;;;;;;;;21.85;65.28;98105.88;2626860;28;19924;-90
2023/07/13 05:49:03;;;;;;;;;;;;;;;21.79;66.27;98108.19;2630732;28;19967;-90
2023/07/13 05:50:19;;;;;;;;;;;;;;;21.87;65.81;98103.09;2630020;28;19924;-92
2023/07/13 05:51:34;;;;;;;;;;;;;;;21.86;65.67;98102.25;2630145;28;20505;-92
2023/07/13 05:52:50;;;;;;;;;;;;;;;21.89;65.04;98101.16;2630324;28;20358;-92
2023/07/13 05:54:06;;;;;;;;;;;;;;;21.94;63.74;98098.94;2630507;28;19931;-92
2023/07/13 05:55:21;;;;;;;;;;;;;;;21.80;64.15;98102.75;2630755;28;19910;-92
2023/07/13 05:56:36;;;;;;;;;;;;;;;21.86;65.45;98104.03;2629554;28;19984;-93
2023/07/13 05:57:52;;;;;;;;;;;;;;;21.89;64.71;98102.94;2623462;28;19924;-91
2023/07/13 05:59:07;;;;;;;;;;;;;;;21.82;64.55;98105.25;2629654;28;19924;-92
2023/07/13 06:00:23;;;;;;;;;;;;;;;21.92;64.10;98105.38;2630708;28;19943;-92
2023/07/13 06:01:39;;;;;;;;;;;;;;;21.82;63.75;98103.47;2630342;28;19920;-93
2023/07/13 06:02:55;;;;;;;;;;;;;;;21.90;63.34;98101.97;2629906;28;20006;-94
2023/07/13 06:04:11;;;;;;;;;;;;;;;21.87;63.59;98098.59;2623422;28;19959;-93
2023/07/13 06:05:28;;;;;;;;;;;;;;;21.98;62.61;98099.56;2618276;28;19935;-91
2023/07/13 06:06:44;;;;;;;;;;;;;;;21.95;62.92;98100.66;2628439;28;19993;-93
2023/07/13 06:07:59;;;;;;;;;;;;;;;22.01;63.76;98096.63;2630152;28;20237;-92
2023/07/13 06:09:15;;;;;;;;;;;;;;;22.01;63.64;98102.84;2630528;28;20351;-92
2023/07/13 06:10:34;;;;;;;;;;;;;;;22.01;63.86;98104.63;2630652;28;20379;-92
2023/07/13 06:11:49;;;;;;;;;;;;;;;21.98;63.83;98099.56;2630401;28;20389;-92
2023/07/13 06:13:05;;;;;;;;;;;;;;;22.04;64.17;98103.56;2625049;28;19921;-94
2023/07/13 06:14:20;;;;;;;;;;;;;;;22.32;62.83;98107.47;2626933;28;19920;-92
2023/07/13 06:15:35;;;;;;;;;;;;;;;22.52;62.69;98110.34;2629814;28;20405;-92
2023/07/13 06:16:51;;;;;;;;;;;;;;;22.64;62.11;98105.81;2629873;28;20008;-91
2023/07/13 06:18:06;;;;;;;;;;;;;;;22.69;61.22;98108.94;2630385;28;20034;-92
2023/07/13 06:19:22;;;;;;;;;;;;;;;22.86;59.86;98112.84;2630586;28;19973;-93
2023/07/13 06:20:37;;;;;;;;;;;;;;;22.91;58.83;98110.66;2630389;28;20398;-92
2023/07/13 06:21:52;;;;;;;;;;;;;;;23.01;59.13;98108.06;2629567;28;19967;-92
2023/07/13 06:23:08;;;;;;;;;;;;;;;22.74;60.17;98114.75;2620447;28;20379;-94
2023/07/13 06:24:24;;;;;;;;;;;;;;;22.89;59.95;98109.91;2629715;28;19924;-94
2023/07/13 06:25:40;;;;;;;;;;;;;;;22.79;59.89;98117.03;2630199;28;19970;-92
2023/07/13 06:26:55;;;;;;;;;;;;;;;22.76;60.97;98115.47;2629234;28;19985;-92
2023/07/13 06:28:11;;;;;;;;;;;;;;;22.83;59.25;98121.13;2622601;28;19924;-93
2023/07/13 06:29:26;;;;;;;;;;;;;;;22.93;59.64;98118.53;2626977;28;19981;-92
2023/07/13 06:30:41;;;;;;;;;;;;;;;23.13;59.50;98117.69;2629513;28;19973;-92
2023/07/13 06:31:57;;;;;;;;;;;;;;;23.26;58.00;98119.31;2629523;28;20406;-93
2023/07/13 06:33:13;;;;;;;;;;;;;;;23.31;58.02;98113.59;2623330;28;19983;-93